< < Back
Terminal Aerodrome Forecast


Current Version              Previous Versions:   1  2  3  4  5  6  7  8  9  

Terminal Aerodrome Forecast

087
FTUS42 KILM 300000 AAA
TAFILM
TAF AMD
KILM 300022Z 3000/3024 07003KT P6SM FEW060
      TEMPO 3000/3001 3SM SHRA BKN035
     FM301400 06006KT P6SM SCT040
     FM301900 10007KT P6SM FEW050=

Latest METAR

978
SAUS70 KWBC 301100 RRF
MTRILM
METAR KILM 301053Z 03003KT 9SM CLR 21/19 A3000 RMK AO2 SLP160
T02060194


USA.gov is the U.S. government's official web portal to all federal, state and local government web resources and services.